UAE501 VABB-OMDB
Flight info
| Callsign | UAE501 |
|---|---|
| Flight time | N/A |
| Altitude | 38000 |
| Route | RAXET2A SAKUN V2 SUGID N571 DOGET/N0490F400 N571 VUSET A454 PASOV B540 KUPMA/N0402F240 B540 MIVEK P574 IMPED |
| Aircraft | A388/J-SADE2E3FGHIJ3J4J5M1RWXY/LB1D1 |
Departure
| Time | N/A |
|---|---|
| Airport | Chhatrapati Shivaji Maharaj International Airport (VABB) |
Arrival
| Time | 2026-05-03 22:06 |
|---|---|
| Airport | Dubai International Airport (OMDB) |
| Time | Latitude | Longitude | Altitude | Speed | Heading |
|---|---|---|---|---|---|
| 2026-05-03 20:15 | 20.83864 | 66.61182 | 37755 ft | 465 kts | 295° |
| 2026-05-03 20:15 | 20.86709 | 66.54977 | 37762 ft | 464 kts | 295° |
| 2026-05-03 20:16 | 20.89547 | 66.48777 | 37758 ft | 464 kts | 295° |
| 2026-05-03 20:16 | 20.92382 | 66.42578 | 37756 ft | 464 kts | 295° |
| 2026-05-03 20:17 | 20.95211 | 66.36386 | 37747 ft | 463 kts | 295° |
| 2026-05-03 20:17 | 20.98041 | 66.30183 | 37735 ft | 463 kts | 295° |
| 2026-05-03 20:18 | 21.00869 | 66.23979 | 37727 ft | 464 kts | 295° |
| 2026-05-03 20:18 | 21.03695 | 66.17770 | 37732 ft | 464 kts | 295° |
| 2026-05-03 20:19 | 21.06521 | 66.11555 | 37736 ft | 464 kts | 295° |
| 2026-05-03 20:19 | 21.09330 | 66.05375 | 37738 ft | 464 kts | 295° |
| 2026-05-03 20:20 | 21.12150 | 65.99163 | 37739 ft | 464 kts | 295° |
| 2026-05-03 20:20 | 21.15049 | 65.92984 | 37730 ft | 464 kts | 296° |
| 2026-05-03 20:21 | 21.17971 | 65.86823 | 37736 ft | 463 kts | 296° |
| 2026-05-03 20:21 | 21.20879 | 65.80659 | 37732 ft | 463 kts | 296° |
| 2026-05-03 20:22 | 21.23778 | 65.74494 | 37728 ft | 463 kts | 296° |
| 2026-05-03 20:22 | 21.26677 | 65.68319 | 37736 ft | 463 kts | 296° |
| 2026-05-03 20:23 | 21.29569 | 65.62152 | 37740 ft | 463 kts | 296° |
| 2026-05-03 20:23 | 21.32456 | 65.55989 | 37733 ft | 462 kts | 296° |
| 2026-05-03 20:24 | 21.35341 | 65.49824 | 37727 ft | 462 kts | 296° |
| 2026-05-03 20:24 | 21.38221 | 65.43661 | 37727 ft | 462 kts | 296° |
| 2026-05-03 20:25 | 21.41078 | 65.37542 | 37727 ft | 462 kts | 296° |
| 2026-05-03 20:25 | 21.43954 | 65.31372 | 37726 ft | 462 kts | 296° |
| 2026-05-03 20:26 | 21.46831 | 65.25194 | 37728 ft | 462 kts | 296° |
| 2026-05-03 20:26 | 21.49705 | 65.19017 | 37744 ft | 461 kts | 296° |
| 2026-05-03 20:27 | 21.52568 | 65.12854 | 37736 ft | 461 kts | 296° |
| 2026-05-03 20:27 | 21.55425 | 65.06697 | 37733 ft | 460 kts | 296° |
| 2026-05-03 20:28 | 21.58276 | 65.00546 | 37728 ft | 460 kts | 296° |
| 2026-05-03 20:28 | 21.61121 | 64.94402 | 37728 ft | 459 kts | 296° |
| 2026-05-03 20:29 | 21.63941 | 64.88304 | 37718 ft | 459 kts | 296° |
| 2026-05-03 20:29 | 21.66778 | 64.82161 | 37715 ft | 458 kts | 296° |
| 2026-05-03 20:30 | 21.69613 | 64.76014 | 37718 ft | 458 kts | 296° |
| 2026-05-03 20:30 | 21.72440 | 64.69878 | 37723 ft | 458 kts | 296° |
| 2026-05-03 20:31 | 21.75268 | 64.63734 | 37721 ft | 458 kts | 296° |
| 2026-05-03 20:31 | 21.78086 | 64.57604 | 37720 ft | 457 kts | 296° |
| 2026-05-03 20:32 | 21.80904 | 64.51465 | 37712 ft | 457 kts | 296° |
| 2026-05-03 20:32 | 21.83717 | 64.45332 | 37716 ft | 457 kts | 296° |
| 2026-05-03 20:33 | 21.86530 | 64.39190 | 37717 ft | 457 kts | 296° |
| 2026-05-03 20:33 | 21.89339 | 64.33049 | 37712 ft | 457 kts | 296° |
| 2026-05-03 20:34 | 21.92125 | 64.26951 | 37731 ft | 457 kts | 296° |
| 2026-05-03 20:34 | 21.94928 | 64.20810 | 37729 ft | 457 kts | 296° |
| 2026-05-03 20:35 | 21.97725 | 64.14672 | 37720 ft | 456 kts | 296° |
| 2026-05-03 20:35 | 22.00522 | 64.08529 | 37720 ft | 456 kts | 296° |
| 2026-05-03 20:36 | 22.03307 | 64.02403 | 37711 ft | 455 kts | 296° |
| 2026-05-03 20:36 | 22.06090 | 63.96277 | 37707 ft | 455 kts | 296° |
| 2026-05-03 20:37 | 22.08871 | 63.90147 | 37708 ft | 455 kts | 296° |
| 2026-05-03 20:37 | 22.11646 | 63.84021 | 37707 ft | 455 kts | 296° |
| 2026-05-03 20:38 | 22.14403 | 63.77929 | 37729 ft | 455 kts | 296° |
| 2026-05-03 20:38 | 22.17171 | 63.71803 | 37725 ft | 454 kts | 296° |
| 2026-05-03 20:39 | 22.19935 | 63.65679 | 37719 ft | 453 kts | 296° |
| 2026-05-03 20:39 | 22.22692 | 63.59565 | 37715 ft | 453 kts | 296° |
| 2026-05-03 20:40 | 22.25447 | 63.53447 | 37713 ft | 453 kts | 296° |
| 2026-05-03 20:40 | 22.28197 | 63.47332 | 37710 ft | 452 kts | 296° |
| 2026-05-03 20:41 | 22.30945 | 63.41215 | 37713 ft | 452 kts | 296° |
| 2026-05-03 20:41 | 22.33684 | 63.35110 | 37706 ft | 452 kts | 296° |
| 2026-05-03 20:42 | 22.36420 | 63.29004 | 37719 ft | 451 kts | 296° |
| 2026-05-03 20:42 | 22.39149 | 63.22906 | 37717 ft | 450 kts | 296° |
| 2026-05-03 20:43 | 22.41878 | 63.16805 | 37716 ft | 450 kts | 296° |
| 2026-05-03 20:43 | 22.44129 | 63.11740 | 37712 ft | 449 kts | 295° |
| 2026-05-03 20:44 | 22.46953 | 63.04501 | 37709 ft | 449 kts | 294° |
| 2026-05-03 20:44 | 22.49393 | 62.98292 | 37707 ft | 449 kts | 294° |
| 2026-05-03 20:45 | 22.51824 | 62.92080 | 37704 ft | 448 kts | 293° |
| 2026-05-03 20:45 | 22.54244 | 62.85872 | 37710 ft | 448 kts | 293° |
| 2026-05-03 20:46 | 22.56253 | 62.80710 | 37712 ft | 448 kts | 294° |
| 2026-05-03 20:46 | 22.58666 | 62.74505 | 37715 ft | 447 kts | 294° |
| 2026-05-03 20:47 | 22.61074 | 62.68302 | 37711 ft | 447 kts | 294° |
| 2026-05-03 20:47 | 22.63480 | 62.62096 | 37707 ft | 447 kts | 294° |
| 2026-05-03 20:48 | 22.65881 | 62.55896 | 37712 ft | 447 kts | 294° |
| 2026-05-03 20:48 | 22.68281 | 62.49691 | 37706 ft | 446 kts | 294° |
| 2026-05-03 20:49 | 22.70676 | 62.43489 | 37707 ft | 447 kts | 294° |
| 2026-05-03 20:49 | 22.73072 | 62.37277 | 37712 ft | 447 kts | 294° |
| 2026-05-03 20:50 | 22.75466 | 62.31060 | 37710 ft | 447 kts | 294° |
| 2026-05-03 20:50 | 22.77863 | 62.24829 | 37717 ft | 448 kts | 294° |
| 2026-05-03 20:51 | 22.80262 | 62.18583 | 37711 ft | 449 kts | 294° |
| 2026-05-03 20:51 | 22.82645 | 62.12369 | 37715 ft | 450 kts | 293° |
| 2026-05-03 20:52 | 22.85048 | 62.06096 | 37716 ft | 450 kts | 293° |
| 2026-05-03 20:52 | 22.87450 | 61.99819 | 37720 ft | 451 kts | 293° |
| 2026-05-03 20:53 | 22.89851 | 61.93531 | 37725 ft | 451 kts | 293° |
| 2026-05-03 20:53 | 22.92254 | 61.87232 | 37708 ft | 452 kts | 293° |
| 2026-05-03 20:54 | 22.94642 | 61.80963 | 37742 ft | 452 kts | 293° |
| 2026-05-03 20:54 | 22.98235 | 61.71514 | 37733 ft | 451 kts | 293° |
| 2026-05-03 20:55 | 23.00625 | 61.65220 | 37731 ft | 451 kts | 293° |
| 2026-05-03 20:55 | 23.03007 | 61.58934 | 37721 ft | 450 kts | 293° |
| 2026-05-03 20:56 | 23.05387 | 61.52648 | 37718 ft | 450 kts | 293° |
| 2026-05-03 20:56 | 23.07760 | 61.46372 | 37714 ft | 449 kts | 293° |
| 2026-05-03 20:57 | 23.10129 | 61.40097 | 37706 ft | 449 kts | 293° |
| 2026-05-03 20:57 | 23.12494 | 61.33823 | 37728 ft | 449 kts | 293° |
| 2026-05-03 20:58 | 23.14853 | 61.27554 | 37713 ft | 448 kts | 293° |
| 2026-05-03 20:58 | 23.17211 | 61.21282 | 37702 ft | 448 kts | 293° |
| 2026-05-03 20:59 | 23.19566 | 61.15008 | 37702 ft | 448 kts | 293° |
| 2026-05-03 20:59 | 23.21917 | 61.08736 | 37704 ft | 448 kts | 293° |
| 2026-05-03 21:00 | 23.23871 | 61.03518 | 37692 ft | 448 kts | 293° |
| 2026-05-03 21:00 | 23.26602 | 60.96213 | 37688 ft | 448 kts | 293° |
| 2026-05-03 21:01 | 23.28951 | 60.89919 | 37694 ft | 449 kts | 293° |
| 2026-05-03 21:01 | 23.31300 | 60.83618 | 37726 ft | 450 kts | 293° |
| 2026-05-03 21:02 | 23.33650 | 60.77305 | 37722 ft | 450 kts | 293° |
| 2026-05-03 21:02 | 23.35982 | 60.71031 | 37705 ft | 450 kts | 293° |
| 2026-05-03 21:03 | 23.38328 | 60.64716 | 37702 ft | 450 kts | 293° |
| 2026-05-03 21:03 | 23.40651 | 60.58393 | 37705 ft | 450 kts | 292° |
| 2026-05-03 21:04 | 23.42962 | 60.52065 | 37709 ft | 450 kts | 292° |
| 2026-05-03 21:04 | 23.45278 | 60.45725 | 37694 ft | 450 kts | 292° |
| 2026-05-03 21:05 | 23.47591 | 60.39386 | 37694 ft | 451 kts | 292° |
| 2026-05-03 21:05 | 23.49890 | 60.33078 | 37726 ft | 451 kts | 292° |
| 2026-05-03 21:06 | 23.52199 | 60.26736 | 37721 ft | 450 kts | 292° |
| 2026-05-03 21:06 | 23.54504 | 60.20395 | 37717 ft | 449 kts | 292° |
| 2026-05-03 21:07 | 23.56803 | 60.14060 | 37702 ft | 449 kts | 292° |
| 2026-05-03 21:07 | 23.59100 | 60.07723 | 37702 ft | 449 kts | 292° |
| 2026-05-03 21:08 | 23.61392 | 60.01389 | 37700 ft | 449 kts | 292° |
| 2026-05-03 21:08 | 23.63684 | 59.95045 | 37699 ft | 449 kts | 292° |
| 2026-05-03 21:09 | 23.65970 | 59.88706 | 37701 ft | 449 kts | 292° |
| 2026-05-03 21:09 | 23.68241 | 59.82402 | 37712 ft | 449 kts | 292° |
| 2026-05-03 21:10 | 23.70542 | 59.76005 | 37715 ft | 449 kts | 292° |
| 2026-05-03 21:10 | 23.72808 | 59.69695 | 37717 ft | 449 kts | 292° |
| 2026-05-03 21:11 | 23.75083 | 59.63350 | 37714 ft | 449 kts | 292° |
| 2026-05-03 21:11 | 23.77358 | 59.56997 | 37705 ft | 449 kts | 292° |
| 2026-05-03 21:12 | 23.79632 | 59.50639 | 37706 ft | 449 kts | 292° |
| 2026-05-03 21:12 | 23.81905 | 59.44269 | 37709 ft | 450 kts | 292° |
| 2026-05-03 21:13 | 23.84176 | 59.37899 | 37738 ft | 450 kts | 292° |
| 2026-05-03 21:13 | 23.86441 | 59.31536 | 37731 ft | 449 kts | 291° |
| 2026-05-03 21:14 | 23.88687 | 59.25216 | 37729 ft | 449 kts | 291° |
| 2026-05-03 21:14 | 23.90942 | 59.18863 | 37726 ft | 448 kts | 291° |
| 2026-05-03 21:15 | 23.93191 | 59.12510 | 37724 ft | 448 kts | 291° |
| 2026-05-03 21:15 | 23.95263 | 59.06095 | 37723 ft | 447 kts | 289° |
| 2026-05-03 21:16 | 23.97292 | 58.99664 | 37713 ft | 447 kts | 290° |
| 2026-05-03 21:16 | 23.99342 | 58.93239 | 37712 ft | 447 kts | 290° |
| 2026-05-03 21:17 | 24.01063 | 58.87859 | 37737 ft | 447 kts | 290° |
| 2026-05-03 21:17 | 24.03448 | 58.80398 | 37738 ft | 447 kts | 290° |
| 2026-05-03 21:18 | 24.05495 | 58.73981 | 37730 ft | 446 kts | 290° |
| 2026-05-03 21:18 | 24.07537 | 58.67568 | 37730 ft | 446 kts | 290° |
| 2026-05-03 21:19 | 24.09573 | 58.61166 | 37728 ft | 446 kts | 290° |
| 2026-05-03 21:19 | 24.11606 | 58.54759 | 37730 ft | 445 kts | 290° |
| 2026-05-03 21:20 | 24.13620 | 58.48402 | 37728 ft | 445 kts | 290° |
| 2026-05-03 21:20 | 24.15649 | 58.41993 | 37716 ft | 445 kts | 290° |
| 2026-05-03 21:21 | 24.17675 | 58.35577 | 37732 ft | 445 kts | 290° |
| 2026-05-03 21:21 | 24.19695 | 58.29171 | 37729 ft | 445 kts | 290° |
| 2026-05-03 21:22 | 24.21714 | 58.22758 | 37733 ft | 445 kts | 289° |
| 2026-05-03 21:22 | 24.23730 | 58.16345 | 37722 ft | 445 kts | 289° |
| 2026-05-03 21:23 | 24.25734 | 58.09959 | 37722 ft | 446 kts | 289° |
| 2026-05-03 21:23 | 24.27750 | 58.03525 | 37727 ft | 446 kts | 289° |
| 2026-05-03 21:24 | 24.29764 | 57.97084 | 37734 ft | 447 kts | 289° |
| 2026-05-03 21:24 | 24.31780 | 57.90629 | 37721 ft | 448 kts | 289° |
| 2026-05-03 21:25 | 24.33794 | 57.84168 | 37739 ft | 448 kts | 289° |
| 2026-05-03 21:25 | 24.35806 | 57.77699 | 37738 ft | 448 kts | 289° |
| 2026-05-03 21:26 | 24.37816 | 57.71229 | 37738 ft | 448 kts | 289° |
| 2026-05-03 21:26 | 24.39824 | 57.64758 | 37731 ft | 448 kts | 289° |
| 2026-05-03 21:27 | 24.41828 | 57.58283 | 37727 ft | 448 kts | 289° |
| 2026-05-03 21:27 | 24.43834 | 57.51796 | 37725 ft | 449 kts | 289° |
| 2026-05-03 21:28 | 24.44833 | 57.48558 | 37598 ft | 446 kts | 289° |
| 2026-05-03 21:28 | 24.45809 | 57.45394 | 37336 ft | 442 kts | 289° |
| 2026-05-03 21:28 | 24.46791 | 57.42208 | 37105 ft | 441 kts | 289° |
| 2026-05-03 21:28 | 24.47774 | 57.39014 | 36846 ft | 442 kts | 289° |
| 2026-05-03 21:29 | 24.48760 | 57.35811 | 36584 ft | 443 kts | 289° |
| 2026-05-03 21:29 | 24.49745 | 57.32605 | 36339 ft | 444 kts | 289° |
| 2026-05-03 21:29 | 24.50731 | 57.29395 | 36035 ft | 443 kts | 289° |
| 2026-05-03 21:29 | 24.51718 | 57.26181 | 35337 ft | 444 kts | 289° |
| 2026-05-03 21:30 | 24.52709 | 57.22949 | 34325 ft | 451 kts | 288° |
| 2026-05-03 21:30 | 24.53715 | 57.19664 | 33369 ft | 455 kts | 289° |
| 2026-05-03 21:30 | 24.54717 | 57.16389 | 32710 ft | 449 kts | 289° |
| 2026-05-03 21:30 | 24.55701 | 57.13172 | 32302 ft | 439 kts | 289° |
| 2026-05-03 21:31 | 24.56664 | 57.10018 | 31786 ft | 432 kts | 289° |
| 2026-05-03 21:31 | 24.57616 | 57.06900 | 31232 ft | 427 kts | 289° |
| 2026-05-03 21:31 | 24.58554 | 57.03823 | 30706 ft | 423 kts | 289° |
| 2026-05-03 21:31 | 24.59485 | 57.00771 | 30155 ft | 419 kts | 289° |
| 2026-05-03 21:32 | 24.60393 | 56.97789 | 29594 ft | 415 kts | 290° |
| 2026-05-03 21:32 | 24.61315 | 56.94761 | 29046 ft | 409 kts | 290° |
| 2026-05-03 21:32 | 24.62201 | 56.91850 | 28528 ft | 404 kts | 290° |
| 2026-05-03 21:32 | 24.63083 | 56.88947 | 28010 ft | 398 kts | 290° |
| 2026-05-03 21:33 | 24.63674 | 56.87004 | 27660 ft | 395 kts | 290° |
| 2026-05-03 21:33 | 24.65083 | 56.83365 | 26988 ft | 387 kts | 298° |
| 2026-05-03 21:33 | 24.65947 | 56.81659 | 26567 ft | 386 kts | 301° |
| 2026-05-03 21:33 | 24.67363 | 56.79142 | 25973 ft | 389 kts | 301° |
| 2026-05-03 21:34 | 24.68784 | 56.76583 | 25644 ft | 394 kts | 301° |
| 2026-05-03 21:34 | 24.70211 | 56.73994 | 25191 ft | 395 kts | 301° |
| 2026-05-03 21:34 | 24.71629 | 56.71420 | 24924 ft | 392 kts | 301° |
| 2026-05-03 21:34 | 24.73041 | 56.68855 | 24372 ft | 392 kts | 301° |
| 2026-05-03 21:35 | 24.74462 | 56.66273 | 23640 ft | 396 kts | 301° |
| 2026-05-03 21:35 | 24.75879 | 56.63700 | 23101 ft | 391 kts | 301° |
| 2026-05-03 21:35 | 24.77270 | 56.61173 | 22810 ft | 382 kts | 302° |
| 2026-05-03 21:35 | 24.78640 | 56.58682 | 22331 ft | 380 kts | 302° |
| 2026-05-03 21:36 | 24.80002 | 56.56205 | 21774 ft | 377 kts | 302° |
| 2026-05-03 21:36 | 24.81350 | 56.53753 | 21253 ft | 372 kts | 302° |
| 2026-05-03 21:36 | 24.82683 | 56.51326 | 20711 ft | 369 kts | 302° |
| 2026-05-03 21:36 | 24.84006 | 56.48917 | 20190 ft | 365 kts | 302° |
| 2026-05-03 21:37 | 24.85316 | 56.46530 | 19658 ft | 362 kts | 302° |
| 2026-05-03 21:37 | 24.86612 | 56.44167 | 19138 ft | 360 kts | 302° |
| 2026-05-03 21:37 | 24.87734 | 56.41716 | 18628 ft | 358 kts | 291° |
| 2026-05-03 21:37 | 24.88330 | 56.39054 | 18126 ft | 359 kts | 279° |
| 2026-05-03 21:38 | 24.88376 | 56.36298 | 17577 ft | 360 kts | 268° |
| 2026-05-03 21:38 | 24.88196 | 56.33567 | 17088 ft | 356 kts | 269° |
| 2026-05-03 21:38 | 24.88049 | 56.30862 | 16593 ft | 352 kts | 269° |
| 2026-05-03 21:38 | 24.87925 | 56.28181 | 16083 ft | 348 kts | 272° |
| 2026-05-03 21:39 | 24.88184 | 56.25561 | 15621 ft | 342 kts | 285° |
| 2026-05-03 21:39 | 24.88963 | 56.23138 | 15150 ft | 338 kts | 297° |
| 2026-05-03 21:39 | 24.90122 | 56.20899 | 14677 ft | 335 kts | 301° |
| 2026-05-03 21:39 | 24.91281 | 56.18682 | 14213 ft | 333 kts | 300° |
| 2026-05-03 21:40 | 24.92420 | 56.16465 | 13746 ft | 331 kts | 300° |
| 2026-05-03 21:40 | 24.93549 | 56.14259 | 13258 ft | 329 kts | 300° |
| 2026-05-03 21:40 | 24.94667 | 56.12076 | 12775 ft | 326 kts | 300° |
| 2026-05-03 21:40 | 24.95777 | 56.09910 | 12321 ft | 323 kts | 300° |
| 2026-05-03 21:41 | 24.96865 | 56.07800 | 12075 ft | 313 kts | 302° |
| 2026-05-03 21:41 | 24.98116 | 56.05880 | 11962 ft | 300 kts | 310° |
| 2026-05-03 21:41 | 24.99501 | 56.04215 | 11859 ft | 287 kts | 313° |
| 2026-05-03 21:41 | 25.00820 | 56.02620 | 11759 ft | 275 kts | 312° |
| 2026-05-03 21:42 | 25.02077 | 56.01078 | 11596 ft | 267 kts | 312° |
| 2026-05-03 21:42 | 25.03323 | 55.99547 | 11177 ft | 270 kts | 311° |
| 2026-05-03 21:42 | 25.04570 | 55.98018 | 10951 ft | 265 kts | 311° |
| 2026-05-03 21:42 | 25.05794 | 55.96516 | 10714 ft | 261 kts | 312° |
| 2026-05-03 21:43 | 25.06988 | 55.95053 | 10522 ft | 258 kts | 311° |
| 2026-05-03 21:43 | 25.08187 | 55.93582 | 10427 ft | 258 kts | 311° |
| 2026-05-03 21:43 | 25.09388 | 55.92108 | 10331 ft | 258 kts | 311° |
| 2026-05-03 21:43 | 25.10586 | 55.90639 | 10245 ft | 257 kts | 311° |
| 2026-05-03 21:44 | 25.11787 | 55.89165 | 10083 ft | 259 kts | 311° |
| 2026-05-03 21:44 | 25.12984 | 55.87694 | 9930 ft | 256 kts | 311° |
| 2026-05-03 21:44 | 25.14178 | 55.86228 | 9734 ft | 256 kts | 311° |
| 2026-05-03 21:44 | 25.15362 | 55.84763 | 9538 ft | 255 kts | 309° |
| 2026-05-03 21:45 | 25.16372 | 55.83152 | 9342 ft | 256 kts | 301° |
| 2026-05-03 21:45 | 25.17281 | 55.81480 | 9132 ft | 254 kts | 301° |
| 2026-05-03 21:45 | 25.18202 | 55.79824 | 8949 ft | 253 kts | 302° |
| 2026-05-03 21:45 | 25.19111 | 55.78201 | 8743 ft | 250 kts | 302° |
| 2026-05-03 21:46 | 25.20034 | 55.76551 | 8570 ft | 248 kts | 302° |
| 2026-05-03 21:46 | 25.20926 | 55.74952 | 8380 ft | 247 kts | 302° |
| 2026-05-03 21:46 | 25.21824 | 55.73340 | 8192 ft | 245 kts | 302° |
| 2026-05-03 21:46 | 25.22717 | 55.71734 | 8016 ft | 245 kts | 302° |
| 2026-05-03 21:47 | 25.23614 | 55.70124 | 7762 ft | 245 kts | 302° |
| 2026-05-03 21:47 | 25.24506 | 55.68529 | 7527 ft | 244 kts | 301° |
| 2026-05-03 21:47 | 25.25397 | 55.66937 | 7288 ft | 242 kts | 301° |
| 2026-05-03 21:47 | 25.26284 | 55.65349 | 7054 ft | 241 kts | 301° |
| 2026-05-03 21:48 | 25.27145 | 55.63807 | 6967 ft | 231 kts | 301° |
| 2026-05-03 21:48 | 25.27961 | 55.62340 | 6850 ft | 219 kts | 301° |
| 2026-05-03 21:48 | 25.28767 | 55.60892 | 6438 ft | 223 kts | 301° |
| 2026-05-03 21:48 | 25.29370 | 55.59330 | 5970 ft | 223 kts | 277° |
| 2026-05-03 21:49 | 25.29159 | 55.57652 | 5767 ft | 223 kts | 249° |
| 2026-05-03 21:49 | 25.28210 | 55.56287 | 5734 ft | 232 kts | 221° |
| 2026-05-03 21:49 | 25.26816 | 55.55339 | 5739 ft | 237 kts | 216° |
| 2026-05-03 21:49 | 25.25282 | 55.54645 | 5679 ft | 245 kts | 192° |
| 2026-05-03 21:50 | 25.23576 | 55.54858 | 5594 ft | 254 kts | 161° |
| 2026-05-03 21:50 | 25.22146 | 55.56000 | 5537 ft | 258 kts | 130° |
| 2026-05-03 21:50 | 25.21190 | 55.57676 | 5433 ft | 259 kts | 116° |
| 2026-05-03 21:50 | 25.20415 | 55.59443 | 5354 ft | 258 kts | 115° |
| 2026-05-03 21:51 | 25.19609 | 55.61213 | 5259 ft | 258 kts | 118° |
| 2026-05-03 21:51 | 25.18743 | 55.62948 | 5160 ft | 258 kts | 120° |
| 2026-05-03 21:51 | 25.17835 | 55.64654 | 5075 ft | 258 kts | 121° |
| 2026-05-03 21:51 | 25.16916 | 55.66327 | 4973 ft | 256 kts | 122° |
| 2026-05-03 21:52 | 25.15975 | 55.68017 | 4875 ft | 256 kts | 122° |
| 2026-05-03 21:52 | 25.15045 | 55.69681 | 4775 ft | 254 kts | 122° |
| 2026-05-03 21:52 | 25.14112 | 55.71349 | 4688 ft | 256 kts | 122° |
| 2026-05-03 21:52 | 25.13182 | 55.73013 | 4602 ft | 255 kts | 122° |
| 2026-05-03 21:53 | 25.12255 | 55.74671 | 4537 ft | 252 kts | 122° |
| 2026-05-03 21:53 | 25.11352 | 55.76286 | 4420 ft | 241 kts | 122° |
| 2026-05-03 21:53 | 25.10500 | 55.77811 | 4341 ft | 224 kts | 122° |
| 2026-05-03 21:53 | 25.09691 | 55.79259 | 4240 ft | 221 kts | 122° |
| 2026-05-03 21:54 | 25.08879 | 55.80711 | 4138 ft | 223 kts | 122° |
| 2026-05-03 21:54 | 25.08059 | 55.82176 | 4057 ft | 225 kts | 122° |
| 2026-05-03 21:54 | 25.07238 | 55.83646 | 3975 ft | 225 kts | 122° |
| 2026-05-03 21:54 | 25.06318 | 55.85036 | 3891 ft | 224 kts | 141° |
| 2026-05-03 21:55 | 25.04948 | 55.85745 | 3799 ft | 215 kts | 178° |
| 2026-05-03 21:55 | 25.03539 | 55.85502 | 3747 ft | 201 kts | 211° |
| 2026-05-03 21:55 | 25.02407 | 55.84684 | 3668 ft | 195 kts | 224° |
| 2026-05-03 21:55 | 25.01349 | 55.83739 | 3609 ft | 195 kts | 226° |
| 2026-05-03 21:56 | 25.00598 | 55.82547 | 3537 ft | 188 kts | 256° |
| 2026-05-03 21:56 | 25.00524 | 55.81149 | 3466 ft | 182 kts | 284° |
| 2026-05-03 21:56 | 25.01076 | 55.79918 | 3402 ft | 180 kts | 303° |
| 2026-05-03 21:56 | 25.01756 | 55.78766 | 3359 ft | 181 kts | 301° |
| 2026-05-03 21:57 | 25.02431 | 55.77581 | 3264 ft | 185 kts | 302° |
| 2026-05-03 21:57 | 25.03127 | 55.76397 | 3206 ft | 184 kts | 302° |
| 2026-05-03 21:57 | 25.03808 | 55.75201 | 3129 ft | 184 kts | 301° |
| 2026-05-03 21:57 | 25.04478 | 55.73997 | 3056 ft | 184 kts | 301° |
| 2026-05-03 21:58 | 25.05146 | 55.72792 | 2983 ft | 184 kts | 301° |
| 2026-05-03 21:58 | 25.05808 | 55.71598 | 2910 ft | 182 kts | 301° |
| 2026-05-03 21:58 | 25.06468 | 55.70408 | 2835 ft | 182 kts | 301° |
| 2026-05-03 21:58 | 25.07130 | 55.69215 | 2780 ft | 183 kts | 300° |
| 2026-05-03 21:59 | 25.07794 | 55.68018 | 2709 ft | 183 kts | 300° |
| 2026-05-03 21:59 | 25.08457 | 55.66823 | 2641 ft | 183 kts | 300° |
| 2026-05-03 21:59 | 25.09123 | 55.65621 | 2567 ft | 183 kts | 300° |
| 2026-05-03 21:59 | 25.09784 | 55.64430 | 2487 ft | 182 kts | 301° |
| 2026-05-03 22:00 | 25.10444 | 55.63240 | 2418 ft | 182 kts | 301° |
| 2026-05-03 22:00 | 25.11105 | 55.62047 | 2366 ft | 182 kts | 300° |
| 2026-05-03 22:00 | 25.11764 | 55.60858 | 2280 ft | 181 kts | 300° |
| 2026-05-03 22:00 | 25.12420 | 55.59675 | 2219 ft | 182 kts | 300° |
| 2026-05-03 22:01 | 25.13085 | 55.58474 | 2134 ft | 184 kts | 300° |
| 2026-05-03 22:01 | 25.13753 | 55.57268 | 2069 ft | 184 kts | 300° |
| 2026-05-03 22:01 | 25.14425 | 55.56057 | 1998 ft | 185 kts | 300° |
| 2026-05-03 22:01 | 25.15091 | 55.54855 | 1993 ft | 184 kts | 300° |
| 2026-05-03 22:02 | 25.15716 | 55.53730 | 1984 ft | 159 kts | 300° |
| 2026-05-03 22:02 | 25.16259 | 55.52750 | 1985 ft | 144 kts | 300° |
| 2026-05-03 22:02 | 25.16768 | 55.51828 | 1985 ft | 139 kts | 300° |
| 2026-05-03 22:02 | 25.17267 | 55.50925 | 1984 ft | 138 kts | 300° |
| 2026-05-03 22:03 | 25.17767 | 55.50023 | 1984 ft | 138 kts | 300° |
| 2026-05-03 22:03 | 25.18269 | 55.49117 | 1926 ft | 139 kts | 300° |
| 2026-05-03 22:03 | 25.18765 | 55.48221 | 1745 ft | 138 kts | 300° |
| 2026-05-03 22:03 | 25.19265 | 55.47317 | 1584 ft | 138 kts | 300° |
| 2026-05-03 22:04 | 25.19766 | 55.46413 | 1388 ft | 139 kts | 300° |
| 2026-05-03 22:04 | 25.20267 | 55.45507 | 1215 ft | 140 kts | 300° |
| 2026-05-03 22:04 | 25.20777 | 55.44586 | 1033 ft | 141 kts | 300° |
| 2026-05-03 22:04 | 25.21290 | 55.43663 | 871 ft | 143 kts | 301° |
| 2026-05-03 22:05 | 25.21810 | 55.42719 | 699 ft | 145 kts | 300° |
| 2026-05-03 22:05 | 25.22336 | 55.41767 | 526 ft | 146 kts | 300° |
| 2026-05-03 22:05 | 25.22867 | 55.40811 | 352 ft | 145 kts | 299° |
| 2026-05-03 22:05 | 25.23390 | 55.39862 | 160 ft | 144 kts | 300° |
| 2026-05-03 22:06 | 25.23902 | 55.38932 | 29 ft | 132 kts | 301° |
| 2026-05-03 22:06 | 25.24251 | 55.38293 | 31 ft | 63 kts | 302° |
| 2026-05-03 22:06 | 25.24354 | 55.38109 | 31 ft | 0 kts | 302° |
| 2026-05-03 22:06 | 25.24444 | 55.37981 | 30 ft | 26 kts | 327° |
| 2026-05-03 22:07 | 25.24573 | 55.38007 | 28 ft | 7 kts | 44° |
| 2026-05-03 22:07 | 25.24589 | 55.38020 | 28 ft | 0 kts | 31° |
| 2026-05-03 22:08 | 25.24590 | 55.38021 | 28 ft | 2 kts | 31° |
| 2026-05-03 22:08 | 25.24611 | 55.38034 | 28 ft | 3 kts | 29° |
| 2026-05-03 22:08 | 25.24661 | 55.38065 | 29 ft | 13 kts | 30° |
| 2026-05-03 22:08 | 25.24761 | 55.38084 | 31 ft | 18 kts | 324° |
| 2026-05-03 22:09 | 25.24813 | 55.37990 | 30 ft | 16 kts | 268° |
| 2026-05-03 22:09 | 25.24758 | 55.37904 | 28 ft | 8 kts | 216° |
| 2026-05-03 22:09 | 25.24683 | 55.37901 | 27 ft | 15 kts | 156° |
| 2026-05-03 22:10 | 25.24511 | 55.37844 | 29 ft | 3 kts | 217° |
| 2026-05-03 22:10 | 25.24474 | 55.37815 | 28 ft | 9 kts | 215° |
| 2026-05-03 22:10 | 25.24444 | 55.37791 | 27 ft | 3 kts | 215° |
| 2026-05-03 22:10 | 25.24423 | 55.37775 | 27 ft | 5 kts | 215° |
| 2026-05-03 22:11 | 25.24411 | 55.37765 | 27 ft | 5 kts | 215° |
| 2026-05-03 22:11 | 25.24385 | 55.37712 | 26 ft | 12 kts | 268° |
| 2026-05-03 22:11 | 25.24414 | 55.37614 | 31 ft | 16 kts | 281° |
| 2026-05-03 22:11 | 25.24422 | 55.37551 | 27 ft | 3 kts | 275° |
| 2026-05-03 22:12 | 25.24425 | 55.37508 | 29 ft | 9 kts | 275° |
| 2026-05-03 22:12 | 25.24430 | 55.37449 | 30 ft | 1 kts | 276° |
| 2026-05-03 22:12 | 25.24435 | 55.37419 | 30 ft | 6 kts | 295° |
| 2026-05-03 22:12 | 25.24461 | 55.37366 | 28 ft | 7 kts | 299° |
| 2026-05-03 22:13 | 25.24495 | 55.37301 | 30 ft | 12 kts | 300° |
| 2026-05-03 22:13 | 25.24505 | 55.37281 | 32 ft | 4 kts | 301° |
| 2026-05-03 22:13 | 25.24531 | 55.37235 | 29 ft | 0 kts | 302° |
| 2026-05-03 22:13 | 25.24537 | 55.37224 | 29 ft | 1 kts | 302° |
| 2026-05-03 22:14 | 25.24554 | 55.37195 | 29 ft | 8 kts | 302° |
| 2026-05-03 22:14 | 25.24592 | 55.37128 | 26 ft | 7 kts | 302° |
| 2026-05-03 22:14 | 25.24604 | 55.37108 | 26 ft | 6 kts | 302° |
| 2026-05-03 22:14 | 25.24634 | 55.37055 | 26 ft | 10 kts | 302° |
| 2026-05-03 22:15 | 25.24672 | 55.36990 | 26 ft | 7 kts | 302° |
| 2026-05-03 22:15 | 25.24682 | 55.36972 | 26 ft | 3 kts | 302° |
| 2026-05-03 22:15 | 25.24705 | 55.36932 | 26 ft | 8 kts | 302° |
| 2026-05-03 22:15 | 25.24731 | 55.36887 | 26 ft | 0 kts | 302° |
| 2026-05-03 22:16 | 25.24737 | 55.36876 | 26 ft | 4 kts | 298° |
| 2026-05-03 22:16 | 25.24745 | 55.36852 | 26 ft | 3 kts | 278° |
| 2026-05-03 22:16 | 25.24744 | 55.36805 | 26 ft | 9 kts | 258° |
| 2026-05-03 22:16 | 25.24722 | 55.36732 | 26 ft | 10 kts | 251° |
| 2026-05-03 22:17 | 25.24710 | 55.36694 | 26 ft | 1 kts | 251° |
| 2026-05-03 22:17 | 25.24705 | 55.36677 | 26 ft | 1 kts | 253° |
| 2026-05-03 22:17 | 25.24699 | 55.36653 | 26 ft | 0 kts | 253° |
| 2026-05-03 22:17 | 25.24697 | 55.36644 | 26 ft | 1 kts | 253° |
| 2026-05-03 22:18 | 25.24695 | 55.36638 | 26 ft | 0 kts | 253° |